CW7448 Weather Reports


Display with metric or nautical units.
time (UTC)temp
F
wind
direction
speed
MPH
gust
MPH
rain 1hr
in
rain 24hr
in
rain mn
in
humidity
%
barometer
mb
20180524205334 80 250 0.0 12.0 0.00 0.00 0.00 29 1016.7
20180524204334 80 249 0.0 18.0 0.00 0.00 0.00 29 1016.9
20180524203334 80 304 0.0 11.0 0.00 0.00 0.00 29 1016.9
20180524201333 80 227 0.0 14.0 0.00 0.00 0.00 34 1017.0
20180524195332 80 355 0.0 8.0 0.00 0.00 0.00 27 1017.1
20180524194332 80 326 0.0 13.0 0.00 0.00 0.00 31 1017.1
20180524193332 80 312 7.0 13.0 0.00 0.00 0.00 25 1017.0
20180524192331 80 242 0.0 16.0 0.00 0.00 0.00 29 1017.1
20180524191331 79 336 3.0 19.0 0.00 0.00 0.00 31 1017.2
20180524190331 79 225 5.0 26.0 0.00 0.00 0.00 30 1017.4
20180524185331 79 257 14.0 17.0 0.00 0.00 0.00 29 1017.5
20180524184330 79 279 12.0 22.0 0.00 0.00 0.00 30 1017.5
20180524183330 79 305 3.0 17.0 0.00 0.00 0.00 30 1017.5
20180524182330 79 236 0.0 22.0 0.00 0.00 0.00 34 1017.4
20180524181329 78 273 4.0 20.0 0.00 0.00 0.00 34 1017.5
20180524180329 78 360 0.0 32.0 0.00 0.00 0.00 35 1017.6
20180524173328 77 182 17.0 21.0 0.00 0.00 0.00 28 1017.7
20180524172328 77 248 2.0 14.0 0.00 0.00 0.00 33 1017.8
20180524171328 78 279 0.0 17.0 0.00 0.00 0.00 27 1017.9
20180524165327 78 9 1.0 15.0 0.00 0.00 0.00 31 1018.1
20180524161326 75 337 1.0 16.0 0.00 0.00 0.00 34 1018.3
20180524160326 75 126 4.0 18.0 0.00 0.00 0.00 27 1018.3
20180524153325 74 34 6.0 25.0 0.00 0.00 0.00 30 1018.3
20180524151324 73 32 4.0 24.0 0.00 0.00 0.00 29 1018.5
20180524150323 73 161 6.0 23.0 0.00 0.00 0.00 35 1018.5
20180524143323 72 242 2.0 12.0 0.00 0.00 0.00 35 1018.5
20180524141322 72 38 2.0 12.0 0.00 0.00 0.00 37 1018.3
20180524135322 70 45 0.0 32.0 0.00 0.00 0.00 30 1018.3
20180524134321 70 209 0.0 10.0 0.00 0.00 0.00 32 1018.2
20180524131320 69 306 3.0 13.0 0.00 0.00 0.00 33 1018.2
20180524130320 68 57 4.0 14.0 0.00 0.00 0.00 37 1018.3
20180524125320 68 290 1.0 10.0 0.00 0.00 0.00 46 1018.4
20180524124320 67 5 3.0 10.0 0.00 0.00 0.00 53 1018.2
20180524120318 64 57 0.0 13.0 0.00 0.00 0.00 57 1017.8
20180524114318 60 22 0.0 8.0 0.00 0.00 0.00 73 1017.7
20180524113318 59 351 0.0 6.0 0.00 0.00 0.00 80 1017.5
20180524112317 57 292 1.0 3.0 0.00 0.00 0.00 87 1017.4
20180524111317 56 246 0.0 8.0 0.00 0.00 0.00 93 1017.5
20180524103316 54 262 0.0 3.0 0.00 0.00 0.00 96 1016.9
20180524102316 53 261 0.0 0.0 0.00 0.00 0.00 96 1016.8
20180524101315 52 261 0.0 0.0 0.00 0.00 0.00 95 1016.4
20180524094314 52 32 0.0 0.0 0.00 0.00 0.00 93 1015.9
20180524093318 52 32 0.0 12.0 0.00 0.00 0.00 93 1015.9
20180524091313 53 32 0.0 13.0 0.00 0.00 0.00 92 1015.8
20180524090313 53 297 0.0 1.0 0.00 0.00 0.00 93 1015.6
20180524084342 53 297 0.0 0.0 0.00 0.00 0.00 91 1015.3
20180524083312 54 297 0.0 6.0 0.00 0.00 0.00 91 1015.3
20180524082342 54 294 0.0 1.0 0.00 0.00 0.00 91 1015.2
20180524075311 55 294 0.0 0.0 0.00 0.00 0.00 90 1014.9
20180524074311 55 294 0.0 2.0 0.00 0.00 0.00 90 1014.8
20180524065339 56 294 0.0 0.0 0.00 0.00 0.00 87 1014.5
20180524062338 57 294 0.0 0.0 0.00 0.00 0.00 87 1014.4
20180524061338 58 294 0.0 0.0 0.00 0.00 0.00 86 1014.4
20180524060338 58 294 0.0 0.0 0.00 0.00 0.00 85 1014.4
20180524044336 60 294 0.0 0.0 0.00 0.00 0.00 79 1014.3
20180524043335 60 294 0.0 2.0 0.00 0.00 0.00 78 1014.1
20180524042335 61 292 0.0 0.0 0.00 0.00 0.00 77 1014.1
20180524035334 63 292 0.0 0.0 0.00 0.00 0.00 73 1014.2
20180524033333 63 265 0.0 1.0 0.00 0.00 0.00 69 1013.9
20180524031333 64 265 1.0 2.0 0.00 0.00 0.00 65 1014.0
20180524024332 66 270 3.0 12.0 0.00 0.00 0.00 60 1013.8
20180524023332 66 259 0.0 2.0 0.00 0.00 0.00 61 1013.6
20180524022331 67 259 0.0 9.0 0.00 0.00 0.00 60 1013.5
20180524021331 67 259 0.0 9.0 0.00 0.00 0.00 58 1013.4
20180524012330 67 334 0.0 0.0 0.00 0.00 0.00 63 1012.7
20180524003328 69 334 0.0 0.0 0.00 0.00 0.00 62 1012.0
20180524001328 71 334 0.0 0.0 0.00 0.00 0.00 56 1011.9
20180523235327 72 334 0.0 0.0 0.00 0.00 0.00 54 1011.5
20180523225325 77 234 0.0 1.0 0.00 0.00 0.00 44 1010.8
20180523224325 78 243 0.0 9.0 0.00 0.00 0.00 45 1010.8
20180523222324 79 228 0.0 16.0 0.00 0.02 0.00 40 1010.6
20180523221324 79 249 0.0 20.0 0.00 0.03 0.00 35 1010.5
20180523220324 80 255 5.0 22.0 0.00 0.03 0.00 39 1010.5
20180523215323 80 322 0.0 14.0 0.00 0.05 0.00 39 1010.4
20180523211322 83 285 1.0 19.0 0.00 0.09 0.00 40 1010.5